Impacts METAR Board INFO
IDs:

KBWI - Baltimore-Washington, MD, US

Updated at: 0936 UTC 20 Nov 2017
Potential Impact None Slight Moderate High
Time19/21Z 19/22Z 19/23Z 20/00Z 20/01Z 20/02Z 20/03Z 20/04Z 20/05Z 20/06Z 20/07Z 20/08Z 20/09Z
VIS10 10 10 10 10 10 10 10 10 10 10 10 10
CIG60 65 -- 70 -- -- 60 75 75 65 60 50 50
CoverBKNBKNSCTBKNFEWFEWBKNBKNBKNBKNBKNBKNBKN
FltCatVFRVFRVFRVFRVFRVFRVFRVFRVFRVFRVFRVFRVFR
WX--------------------------
WDir290290280280270260270280280280290280290
WSpd15 12 10 12 8 8 6 11 16 13 13 10 12
WGst28 -- 18 17 -- -- -- -- -- 18 19 -- 18
Raw hourly METARs
KBWI 192054Z 29015G28KT 10SM BKN060 08/M03 A2977 RMK AO2 PK WND 28028/1955 SLP081 T00781033 53023
KBWI 192154Z 29012KT 10SM BKN065 07/M03 A2980 RMK AO2 PK WND 29026/2129 SLP090 T00721028
KBWI 192254Z 28010G18KT 10SM SCT060 06/M03 A2983 RMK AO2 PK WND 30028/2220 SLP100 T00611033
KBWI 192354Z 28012G17KT 10SM BKN070 06/M04 A2986 RMK AO2 SLP111 T00611039 10106 20056 53028
KBWI 200054Z 27008KT 10SM FEW070 04/M03 A2987 RMK AO2 SLP114 T00441033
KBWI 200154Z 26008KT 10SM FEW070 04/M02 A2989 RMK AO2 SLP123 T00441022
KBWI 200254Z 27006KT 10SM BKN060 BKN075 06/M02 A2991 RMK AO2 SLP128 T00561017 53017
KBWI 200354Z 28011KT 10SM FEW060 BKN075 06/M02 A2993 RMK AO2 SLP137 T00561017
KBWI 200454Z 28016KT 10SM FEW050 BKN075 05/M03 A2995 RMK AO2 SLP141 T00501028 401720039
KBWI 200554Z 28013G18KT 10SM BKN065 05/M03 A2998 RMK AO2 SLP151 T00501033 10061 20039 53023
KBWI 200654Z 29013G19KT 10SM BKN060 04/M05 A3001 RMK AO2 SLP162 T00441050
KBWI 200754Z 28010KT 10SM BKN050 04/M04 A3004 RMK AO2 SLP171 T00441044
KBWI 200854Z 29012G18KT 10SM BKN050 04/M04 A3004 RMK AO2 SLP173 T00441044 51022